Time;durP1;ratioP1;P1;durP2;ratioP2;P2;SDS_P1;SDS_P2;PMS_P1;PMS_P2;Temp;Humidity;BMP_temperature;BMP_pressure;BME280_temperature;BME280_humidity;BME280_pressure;Samples;Min_cycle;Max_cycle;Signal;HPM_P1;HPM_P2
2023/01/17 00:02:01;;;;;;;;;6.50;6.00;;;;;2.92;94.56;95763.56;4961300;28;104100;-71
2023/01/17 00:10:16;;;;;;;;;11.00;10.25;;;;;3.06;93.61;95779.19;4957297;28;108901;-71
2023/01/17 00:12:49;;;;;;;;;6.00;5.25;;;;;3.06;94.33;95786.41;4953930;27;102427;-70
2023/01/17 00:15:18;;;;;;;;;8.00;7.00;;;;;3.06;94.43;95784.53;4957810;28;102193;-71
2023/01/17 00:17:47;;;;;;;;;6.75;6.25;;;;;3.00;93.79;95776.63;4968048;28;102357;-71
2023/01/17 00:26:15;;;;;;;;;12.00;7.00;;;;;3.05;93.83;95776.75;4968311;28;103985;-71
2023/01/17 01:33:44;;;;;;;;;5.75;2.25;;;;;3.07;93.29;95791.50;4959624;28;102353;-71
2023/01/17 01:36:11;;;;;;;;;2.00;2.00;;;;;3.08;93.83;95789.66;4969994;28;104010;-71
2023/01/17 01:38:38;;;;;;;;;6.00;3.50;;;;;3.06;92.60;95791.75;4958095;28;102210;-71
2023/01/17 01:41:06;;;;;;;;;4.50;4.50;;;;;3.06;92.59;95794.41;4970477;28;101902;-72
2023/01/17 01:43:46;;;;;;;;;1.50;1.50;;;;;3.06;92.44;95791.75;4967516;28;104395;-73
2023/01/17 01:46:25;;;;;;;;;2.00;2.00;;;;;3.04;92.60;95797.28;4960244;28;103520;-71
2023/01/17 01:49:00;;;;;;;;;5.00;4.50;;;;;3.06;92.52;95802.44;4953961;28;109952;-72
2023/01/17 01:51:33;;;;;;;;;5.25;5.00;;;;;3.04;93.51;95793.81;4956704;28;102227;-71
2023/01/17 01:54:09;;;;;;;;;4.50;4.50;;;;;3.03;93.71;95781.50;4975185;28;102684;-72
2023/01/17 01:56:37;;;;;;;;;6.25;5.00;;;;;2.85;93.17;95752.16;4962143;28;108864;-71
2023/01/17 01:59:09;;;;;;;;;3.00;2.00;;;;;2.98;92.86;95776.00;4956290;28;103001;-71
2023/01/17 02:01:36;;;;;;;;;5.50;4.00;;;;;2.95;92.83;95776.47;4955586;28;102401;-70
2023/01/17 02:04:08;;;;;;;;;3.00;3.00;;;;;2.93;93.08;95770.53;4957504;28;102159;-72
2023/01/17 02:07:06;;;;;;;;;6.75;3.50;;;;;2.85;92.31;95779.66;4963645;28;104039;-70
2023/01/17 02:09:43;;;;;;;;;4.75;3.00;;;;;2.79;91.95;95782.41;4931796;28;104322;-72
2023/01/17 02:12:29;;;;;;;;;5.25;2.50;;;;;2.70;92.70;95787.22;4950439;28;104826;-71
2023/01/17 02:15:07;;;;;;;;;3.00;3.00;;;;;2.63;92.30;95784.59;4967377;28;102342;-70
2023/01/17 02:18:43;;;;;;;;;2.00;1.00;;;;;2.57;93.35;95788.13;4969797;28;107653;-71
2023/01/17 02:21:48;;;;;;;;;1.50;1.50;;;;;2.50;92.63;95795.41;4878518;28;102052;-71
2023/01/17 02:25:08;;;;;;;;;5.00;3.00;;;;;2.44;92.79;95792.78;4914481;28;102895;-70
2023/01/17 02:28:04;;;;;;;;;5.25;2.50;;;;;2.38;92.50;95804.34;4963157;28;102421;-71
2023/01/17 02:30:59;;;;;;;;;4.50;3.00;;;;;2.31;93.09;95800.88;4965902;28;107668;-71
2023/01/17 02:33:35;;;;;;;;;3.50;3.50;;;;;2.24;93.19;95800.97;4970544;28;102500;-71
2023/01/17 02:36:17;;;;;;;;;1.25;1.25;;;;;2.17;91.86;95803.66;4955782;28;102865;-71
2023/01/17 02:39:09;;;;;;;;;2.25;2.25;;;;;2.11;92.49;95803.72;4964619;28;102321;-71
2023/01/17 02:41:40;;;;;;;;;6.25;3.00;;;;;2.05;92.40;95810.75;4961109;28;108499;-71
2023/01/17 02:44:09;;;;;;;;;3.50;2.50;;;;;2.01;93.04;95803.41;4963599;28;102176;-70
2023/01/17 02:46:47;;;;;;;;;2.00;1.00;;;;;1.97;93.79;95807.53;4978442;28;102321;-71
2023/01/17 02:49:16;;;;;;;;;6.00;6.00;;;;;1.89;94.15;95811.25;4960761;28;103064;-71
2023/01/17 02:52:11;;;;;;;;;4.00;2.50;;;;;1.81;93.47;95808.84;4940663;28;103600;-71
2023/01/17 02:54:52;;;;;;;;;6.00;6.00;;;;;1.76;93.15;95804.16;4950971;28;102072;-71
2023/01/17 02:57:37;;;;;;;;;7.00;6.50;;;;;1.69;93.96;95811.38;4966338;27;102385;-71
2023/01/17 03:00:23;;;;;;;;;7.50;7.50;;;;;1.62;92.92;95807.94;4964468;28;102260;-72
2023/01/17 03:02:56;;;;;;;;;10.25;9.25;;;;;1.53;94.14;95811.88;4968490;28;104124;-71
2023/01/17 03:05:45;;;;;;;;;6.00;6.00;;;;;1.45;94.19;95800.66;4973217;28;102379;-71
2023/01/17 03:08:14;;;;;;;;;9.00;9.00;;;;;1.35;94.43;95796.59;4968692;28;102150;-71
2023/01/17 03:10:43;;;;;;;;;6.00;6.00;;;;;1.30;94.12;95795.63;4972577;28;102478;-71
2023/01/17 03:13:10;;;;;;;;;8.75;8.00;;;;;1.24;95.30;95807.13;4953075;28;104491;-72
2023/01/17 03:15:39;;;;;;;;;10.00;9.75;;;;;1.19;94.76;95820.22;4973465;28;102571;-72
2023/01/17 03:18:13;;;;;;;;;1.25;0.25;;;;;1.15;95.22;95817.19;4964060;28;102435;-71
2023/01/17 03:20:41;;;;;;;;;7.50;5.25;;;;;1.12;95.98;95820.28;4970839;28;102060;-72
2023/01/17 03:23:08;;;;;;;;;13.75;10.25;;;;;1.06;96.48;95820.28;4975495;28;105933;-72
2023/01/17 03:25:35;;;;;;;;;9.25;9.00;;;;;1.04;96.93;95827.66;4977092;28;102319;-72
2023/01/17 03:28:02;;;;;;;;;10.75;9.50;;;;;0.97;96.91;95818.88;4975437;28;103341;-71
2023/01/17 03:30:29;;;;;;;;;20.67;18.33;;;;;0.89;97.83;95819.94;4963438;28;102267;-72
2023/01/17 03:32:56;;;;;;;;;17.00;15.00;;;;;0.87;98.32;95822.78;4969362;28;104173;-71
2023/01/17 03:35:23;;;;;;;;;13.50;11.75;;;;;0.85;97.74;95834.69;4964020;28;104726;-71
2023/01/17 03:37:50;;;;;;;;;17.00;8.00;;;;;0.81;98.53;95842.22;4971160;28;102250;-72
2023/01/17 03:40:17;;;;;;;;;14.00;10.00;;;;;0.77;97.58;95846.34;4957665;28;102221;-71
2023/01/17 03:42:44;;;;;;;;;28.67;26.00;;;;;0.64;97.38;95838.38;4972873;28;104073;-72
2023/01/17 03:45:11;;;;;;;;;45.00;36.00;;;;;0.44;98.58;95834.94;4962040;28;102391;-72
2023/01/17 03:47:38;;;;;;;;;50.67;38.33;;;;;0.29;99.86;95839.63;4969654;28;104715;-71
2023/01/17 03:50:05;;;;;;;;;34.33;25.33;;;;;0.36;100.00;95841.25;4946335;28;103066;-72
2023/01/17 03:52:33;;;;;;;;;22.33;18.33;;;;;0.38;100.00;95844.56;4975994;28;104003;-71
2023/01/17 03:55:01;;;;;;;;;12.33;12.00;;;;;0.42;100.00;95850.25;4971253;28;102542;-71
2023/01/17 03:57:28;;;;;;;;;9.50;7.50;;;;;0.44;100.00;95838.44;4971978;28;104380;-72
2023/01/17 03:59:55;;;;;;;;;16.00;9.00;;;;;0.47;100.00;95842.50;4957851;28;102398;-72
2023/01/17 04:02:23;;;;;;;;;8.75;5.25;;;;;0.49;100.00;95835.16;4970217;28;104187;-72
2023/01/17 04:04:50;;;;;;;;;5.50;5.00;;;;;0.48;100.00;95828.19;4961886;28;102165;-72
2023/01/17 04:07:19;;;;;;;;;7.75;6.00;;;;;0.52;100.00;95834.72;4968699;28;102339;-72
2023/01/17 04:09:46;;;;;;;;;4.75;4.00;;;;;0.56;100.00;95835.13;4963815;28;102333;-72
2023/01/17 04:12:13;;;;;;;;;4.75;2.75;;;;;0.58;100.00;95836.56;4965372;28;104006;-72
2023/01/17 04:14:40;;;;;;;;;4.00;3.50;;;;;0.56;100.00;95830.63;4967163;28;103020;-72
2023/01/17 04:17:11;;;;;;;;;5.00;3.50;;;;;0.59;100.00;95837.34;4965741;28;102567;-70
2023/01/17 04:19:40;;;;;;;;;4.00;1.00;;;;;0.56;100.00;95837.78;4963715;28;102348;-70
2023/01/17 04:22:07;;;;;;;;;2.00;1.00;;;;;0.58;100.00;95835.75;4968214;28;103901;-71
2023/01/17 04:24:34;;;;;;;;;1.00;0.00;;;;;0.58;99.98;95836.56;4961882;28;102361;-71
2023/01/17 04:27:03;;;;;;;;;1.75;1.75;;;;;0.56;99.71;95833.28;4966091;28;102005;-71
2023/01/17 04:29:31;;;;;;;;;2.00;1.00;;;;;0.56;99.80;95830.63;4967352;28;102188;-71
2023/01/17 04:31:58;;;;;;;;;1.00;1.00;;;;;0.55;100.00;95823.66;4967888;28;105972;-71
2023/01/17 04:34:25;;;;;;;;;1.00;1.00;;;;;0.56;99.52;95827.97;4950067;28;102503;-72
2023/01/17 04:36:52;;;;;;;;;2.00;2.00;;;;;0.56;99.86;95822.66;4963465;28;102096;-72
2023/01/17 04:39:19;;;;;;;;;13.00;9.50;;;;;0.45;99.31;95805.47;4960104;28;102064;-72
2023/01/17 04:41:47;;;;;;;;;5.50;5.00;;;;;0.57;100.00;95815.50;4972869;28;102962;-72
2023/01/17 04:44:14;;;;;;;;;5.75;4.50;;;;;0.57;99.57;95816.31;4958502;28;102425;-72
2023/01/17 04:46:41;;;;;;;;;4.75;4.00;;;;;0.59;100.00;95811.59;4965762;28;102351;-73
2023/01/17 04:49:08;;;;;;;;;3.50;1.75;;;;;0.69;100.00;95824.47;4971029;28;102339;-72
2023/01/17 04:51:35;;;;;;;;;2.00;2.00;;;;;0.68;99.75;95826.31;4968308;28;104033;-73
2023/01/17 04:54:03;;;;;;;;;4.50;3.50;;;;;0.69;99.50;95825.28;4952484;28;101925;-71
2023/01/17 04:56:30;;;;;;;;;2.00;1.00;;;;;0.70;99.61;95832.25;4973234;28;102484;-72
2023/01/17 04:58:57;;;;;;;;;1.25;1.00;;;;;0.74;99.55;95828.16;4962699;27;102066;-73
2023/01/17 05:01:24;;;;;;;;;11.50;8.75;;;;;0.70;99.94;95829.59;4968922;28;104192;-75
2023/01/17 05:03:51;;;;;;;;;47.00;34.00;;;;;0.67;100.00;95843.31;4970076;28;102112;-71
2023/01/17 05:06:18;;;;;;;;;38.00;31.33;;;;;0.68;100.00;95855.56;4963098;28;111265;-71
2023/01/17 05:08:45;;;;;;;;;41.00;33.33;;;;;0.57;100.00;95842.91;4966962;28;102369;-73
2023/01/17 05:11:12;;;;;;;;;42.33;29.67;;;;;0.50;100.00;95850.06;4957676;28;104180;-72
2023/01/17 05:13:39;;;;;;;;;37.67;30.33;;;;;0.42;100.00;95855.59;4940875;27;102180;-71
2023/01/17 05:16:08;;;;;;;;;30.67;25.00;;;;;0.43;100.00;95858.03;4942707;28;102290;-72
2023/01/17 05:18:36;;;;;;;;;24.67;23.33;;;;;0.35;100.00;95860.09;4945829;28;102332;-72
2023/01/17 05:21:04;;;;;;;;;29.67;25.67;;;;;0.23;99.47;95870.50;4969979;28;103624;-72
2023/01/17 05:23:31;;;;;;;;;39.00;32.00;;;;;0.05;99.50;95869.47;4973301;28;102462;-72
2023/01/17 05:25:58;;;;;;;;;28.67;20.67;;;;;-0.02;99.67;95870.28;4963057;28;109343;-72
2023/01/17 05:28:25;;;;;;;;;28.00;25.00;;;;;-0.01;100.00;95861.31;4973432;28;102318;-72
2023/01/17 05:30:52;;;;;;;;;18.33;17.00;;;;;0.04;100.00;95846.59;4966155;28;103988;-72
2023/01/17 05:33:19;;;;;;;;;21.00;17.00;;;;;0.05;100.00;95853.53;4954356;27;102348;-72
2023/01/17 05:35:46;;;;;;;;;14.33;12.67;;;;;0.10;100.00;95856.38;4959705;28;102250;-72
2023/01/17 05:38:13;;;;;;;;;13.00;11.00;;;;;0.05;100.00;95849.03;4960400;28;102420;-73
2023/01/17 05:40:40;;;;;;;;;15.00;11.33;;;;;0.06;100.00;95857.81;4977411;28;104074;-73
2023/01/17 05:43:08;;;;;;;;;17.33;15.00;;;;;0.06;100.00;95868.44;4971221;28;102485;-73
2023/01/17 05:45:35;;;;;;;;;22.00;15.67;;;;;0.09;100.00;95860.09;4965577;28;101997;-73
2023/01/17 05:48:02;;;;;;;;;14.33;10.00;;;;;0.12;100.00;95851.69;4965441;27;102263;-73
2023/01/17 05:50:32;;;;;;;;;15.67;12.00;;;;;0.16;100.00;95855.59;4975301;28;109615;-73
2023/01/17 05:53:07;;;;;;;;;8.75;7.50;;;;;0.19;100.00;95857.81;4964913;28;102160;-73
2023/01/17 05:55:36;;;;;;;;;7.50;5.00;;;;;0.22;99.91;95852.94;4953330;28;102156;-73
2023/01/17 05:58:05;;;;;;;;;4.75;4.00;;;;;0.03;98.85;95827.19;4968374;28;102214;-72
2023/01/17 06:00:32;;;;;;;;;17.67;16.33;;;;;0.09;99.83;95846.81;4945330;28;108722;-72
2023/01/17 06:02:59;;;;;;;;;39.00;26.00;;;;;0.04;100.00;95849.25;4967128;28;102592;-72
2023/01/17 06:05:28;;;;;;;;;38.00;30.00;;;;;0.09;100.00;95849.47;4951784;27;102017;-72
2023/01/17 06:07:56;;;;;;;;;36.33;30.00;;;;;0.10;100.00;95851.06;4957613;28;102911;-72
2023/01/17 06:10:23;;;;;;;;;34.33;27.33;;;;;0.10;100.00;95867.00;4990799;28;104270;-72
2023/01/17 06:13:07;;;;;;;;;39.67;34.33;;;;;0.09;100.00;95878.69;4970312;28;102273;-72
2023/01/17 06:15:36;;;;;;;;;27.00;21.33;;;;;0.16;100.00;95871.53;4964440;28;102380;-71
2023/01/17 06:18:14;;;;;;;;;23.33;18.00;;;;;0.16;100.00;95880.31;4968867;28;102919;-72
2023/01/17 06:20:42;;;;;;;;;32.00;26.33;;;;;0.11;100.00;95887.25;4949581;28;108660;-72
2023/01/17 06:23:12;;;;;;;;;21.33;19.00;;;;;0.12;100.00;95887.06;4966713;28;102430;-72
2023/01/17 06:25:45;;;;;;;;;16.00;10.33;;;;;0.19;100.00;95887.03;4948572;28;102258;-72
2023/01/17 06:28:14;;;;;;;;;15.67;14.33;;;;;0.15;100.00;95886.66;4953985;28;102855;-72
2023/01/17 06:30:42;;;;;;;;;13.00;11.00;;;;;0.23;100.00;95882.97;4982928;28;103522;-72
2023/01/17 06:33:11;;;;;;;;;14.75;9.25;;;;;0.28;100.00;95880.50;4959411;28;102519;-72
2023/01/17 06:35:39;;;;;;;;;9.25;8.50;;;;;0.28;99.99;95885.81;4975699;28;102412;-72
2023/01/17 06:38:08;;;;;;;;;6.50;5.25;;;;;0.22;99.20;95871.53;4964712;28;102396;-72
2023/01/17 06:40:35;;;;;;;;;8.75;6.50;;;;;0.31;98.84;95890.75;4967859;28;103994;-72
2023/01/17 06:43:03;;;;;;;;;5.00;4.00;;;;;0.32;98.89;95897.69;4975531;28;102220;-72
2023/01/17 06:45:33;;;;;;;;;8.00;6.00;;;;;0.29;98.58;95890.94;4975246;28;102075;-72
2023/01/17 06:48:02;;;;;;;;;10.50;8.50;;;;;0.31;99.25;95891.59;4964206;28;102447;-73
2023/01/17 06:50:30;;;;;;;;;9.75;9.00;;;;;0.26;98.20;95893.19;4976056;28;103975;-71
2023/01/17 06:53:03;;;;;;;;;12.75;11.25;;;;;0.25;98.14;95892.38;4958414;28;102054;-73
2023/01/17 06:55:32;;;;;;;;;36.33;23.67;;;;;0.20;98.34;95896.66;4964111;28;102842;-72
2023/01/17 06:58:01;;;;;;;;;39.33;36.67;;;;;0.15;100.00;95891.13;4959896;28;102170;-73
2023/01/17 07:00:30;;;;;;;;;40.67;33.00;;;;;0.02;99.94;95886.63;4954979;28;103956;-72
2023/01/17 07:03:16;;;;;;;;;33.33;29.33;;;;;0.13;100.00;95893.19;4973870;27;102122;-72
2023/01/17 07:05:43;;;;;;;;;54.67;40.33;;;;;0.09;100.00;95897.28;4963619;28;102905;-73
2023/01/17 07:08:10;;;;;;;;;32.33;27.67;;;;;0.16;100.00;95904.22;4974319;28;101963;-73
2023/01/17 07:10:37;;;;;;;;;40.67;33.00;;;;;0.17;100.00;95903.22;4978712;28;103948;-72
2023/01/17 07:13:03;;;;;;;;;36.67;31.33;;;;;0.26;100.00;95909.16;4974266;28;102876;-73
2023/01/17 07:15:32;;;;;;;;;43.00;31.33;;;;;0.25;100.00;95910.97;4966044;28;102290;-73
2023/01/17 07:18:00;;;;;;;;;31.33;27.33;;;;;0.32;100.00;95905.66;4965534;28;102377;-72
2023/01/17 07:20:27;;;;;;;;;37.00;34.00;;;;;0.32;100.00;95903.00;4963112;28;104177;-73
2023/01/17 07:22:54;;;;;;;;;28.33;23.33;;;;;0.38;100.00;95903.03;4966723;28;102073;-73
2023/01/17 07:25:21;;;;;;;;;23.00;20.33;;;;;0.50;100.00;95910.38;4960099;28;102106;-73
2023/01/17 07:27:53;;;;;;;;;22.33;20.67;;;;;0.49;100.00;95893.63;4960522;28;102359;-73
2023/01/17 07:30:20;;;;;;;;;13.75;12.75;;;;;0.62;100.00;95909.56;4960323;28;103992;-74
2023/01/17 07:32:52;;;;;;;;;12.00;10.00;;;;;0.67;99.39;95901.81;4958620;28;102130;-74
2023/01/17 07:35:19;;;;;;;;;13.50;12.75;;;;;0.69;99.13;95905.06;4948216;28;102198;-73
2023/01/17 07:37:48;;;;;;;;;45.00;39.00;;;;;0.58;98.20;95908.34;4949631;28;102371;-72
2023/01/17 07:40:16;;;;;;;;;42.33;31.67;;;;;0.58;98.37;95902.22;4952355;28;103768;-73
2023/01/17 07:42:43;;;;;;;;;62.67;47.00;;;;;0.61;98.74;95913.25;4970985;27;102430;-72
2023/01/17 07:45:13;;;;;;;;;69.33;54.00;;;;;0.56;98.87;95914.88;4964319;28;102255;-72
2023/01/17 07:47:40;;;;;;;;;59.00;44.00;;;;;0.63;99.17;95934.31;4964704;28;102238;-73
2023/01/17 07:50:08;;;;;;;;;53.00;41.33;;;;;0.69;99.49;95926.31;4975845;27;104139;-72
2023/01/17 07:52:35;;;;;;;;;50.33;37.33;;;;;0.80;100.00;95931.03;4961020;28;102624;-72
2023/01/17 07:55:02;;;;;;;;;30.33;27.00;;;;;0.88;99.61;95924.69;4967679;28;102351;-73
2023/01/17 07:57:31;;;;;;;;;21.33;19.00;;;;;1.00;99.64;95931.00;4960762;28;102274;-73
2023/01/17 07:59:58;;;;;;;;;24.00;21.67;;;;;1.09;99.00;95928.94;4963838;27;104017;-73
2023/01/17 08:02:25;;;;;;;;;18.67;17.33;;;;;1.15;98.64;95939.59;4970668;28;102477;-73
2023/01/17 08:04:52;;;;;;;;;26.33;20.00;;;;;1.21;98.16;95933.44;4960811;28;101980;-73
2023/01/17 08:07:19;;;;;;;;;25.67;19.67;;;;;1.24;96.99;95938.34;4982779;28;101968;-73
2023/01/17 08:09:48;;;;;;;;;21.50;17.75;;;;;1.30;97.17;95939.34;4967219;27;104009;-73
2023/01/17 08:12:16;;;;;;;;;20.25;17.75;;;;;1.36;97.23;95951.81;4977264;27;102016;-73
2023/01/17 08:14:43;;;;;;;;;29.00;24.00;;;;;1.41;96.46;95949.34;4976286;28;103160;-73
2023/01/17 08:17:15;;;;;;;;;29.00;24.67;;;;;1.48;97.17;95947.50;4943290;28;103075;-73
2023/01/17 08:19:43;;;;;;;;;18.33;17.33;;;;;1.52;96.32;95947.91;4975613;27;104048;-73
2023/01/17 08:22:11;;;;;;;;;33.67;28.00;;;;;1.58;95.89;95947.84;4976078;28;102112;-73
2023/01/17 08:24:38;;;;;;;;;23.67;22.33;;;;;1.63;96.48;95940.06;4982153;27;102033;-73
2023/01/17 08:27:05;;;;;;;;;18.25;16.00;;;;;1.69;96.58;95939.22;4968161;28;104801;-72
2023/01/17 08:29:32;;;;;;;;;17.25;10.75;;;;;1.73;96.40;95951.09;4972370;28;103974;-73
2023/01/17 08:31:59;;;;;;;;;45.67;33.00;;;;;1.73;95.33;95948.44;4968501;28;102378;-73
2023/01/17 08:34:26;;;;;;;;;49.00;41.00;;;;;1.75;95.21;95949.06;4976751;27;102257;-73
2023/01/17 08:36:53;;;;;;;;;27.00;22.67;;;;;1.79;94.38;95950.25;4978784;28;102140;-72
2023/01/17 08:39:20;;;;;;;;;58.33;42.00;;;;;1.77;95.24;95952.31;4956275;28;105295;-73
2023/01/17 08:41:47;;;;;;;;;56.00;41.33;;;;;1.91;95.05;95952.25;4972140;28;102153;-73
2023/01/17 08:44:14;;;;;;;;;38.00;32.00;;;;;1.99;94.60;95955.47;4973876;27;102386;-72
2023/01/17 08:46:44;;;;;;;;;32.00;29.33;;;;;2.06;94.13;95963.47;4970880;28;102248;-72
2023/01/17 08:49:11;;;;;;;;;32.33;28.67;;;;;2.14;94.13;95964.03;4951320;28;103608;-72
2023/01/17 08:51:39;;;;;;;;;16.75;14.25;;;;;2.24;94.12;95966.22;4966106;28;102606;-72
2023/01/17 08:54:08;;;;;;;;;31.50;26.50;;;;;2.27;92.99;95971.13;4959404;28;101993;-72
2023/01/17 08:56:35;;;;;;;;;35.33;34.67;;;;;2.26;92.34;95958.81;4966762;28;110301;-73
2023/01/17 08:59:03;;;;;;;;;28.25;22.25;;;;;2.41;91.53;95964.69;4952562;28;108246;-74
2023/01/17 09:01:39;;;;;;;;;31.67;28.67;;;;;2.51;92.28;95966.88;4972514;28;102470;-72
2023/01/17 09:04:08;;;;;;;;;30.00;28.00;;;;;2.57;90.58;95961.50;4983314;28;102010;-71
2023/01/17 09:06:38;;;;;;;;;20.00;17.75;;;;;2.55;90.99;95962.75;4968387;28;102027;-72
2023/01/17 09:09:06;;;;;;;;;22.25;18.25;;;;;2.65;89.95;95976.44;4974312;28;108647;-73
2023/01/17 09:11:33;;;;;;;;;26.67;20.00;;;;;2.70;90.71;95979.28;4964803;27;102335;-72
2023/01/17 09:14:00;;;;;;;;;36.00;29.33;;;;;2.76;89.58;95966.91;4958847;28;104621;-73
2023/01/17 09:16:28;;;;;;;;;38.00;34.67;;;;;2.78;89.39;95980.84;4968150;28;102287;-72
2023/01/17 09:18:56;;;;;;;;;19.00;17.75;;;;;2.83;90.17;95983.69;4942381;28;104241;-72
2023/01/17 09:21:25;;;;;;;;;23.75;19.00;;;;;2.76;89.80;95973.06;4960896;28;102541;-72
2023/01/17 09:23:53;;;;;;;;;23.00;21.00;;;;;2.90;88.57;95984.47;4959687;28;102436;-72
2023/01/17 09:26:25;;;;;;;;;21.25;19.00;;;;;2.94;88.35;95988.31;4968833;28;102226;-73
2023/01/17 09:28:53;;;;;;;;;32.00;26.00;;;;;2.96;88.02;95988.94;4962270;28;103980;-73
2023/01/17 09:31:21;;;;;;;;;29.50;22.00;;;;;2.90;88.15;95974.59;4959088;28;102369;-73
2023/01/17 09:33:50;;;;;;;;;23.75;20.25;;;;;2.98;87.53;95987.66;4954964;27;102285;-72
2023/01/17 09:36:17;;;;;;;;;25.75;17.00;;;;;3.03;87.50;95985.16;4972131;28;102248;-73
2023/01/17 09:38:45;;;;;;;;;17.25;15.50;;;;;3.12;86.76;95991.03;4984527;28;104218;-72
2023/01/17 09:41:21;;;;;;;;;17.00;14.00;;;;;3.21;87.55;95989.75;4970705;28;101954;-73
2023/01/17 09:44:17;;;;;;;;;19.00;16.00;;;;;3.24;85.70;95991.16;4961225;28;102253;-73
2023/01/17 09:46:47;;;;;;;;;12.75;12.75;;;;;3.28;85.70;95979.84;4968894;28;102189;-72
2023/01/17 09:49:17;;;;;;;;;19.75;16.00;;;;;3.37;86.17;95983.84;4964663;27;104303;-73
2023/01/17 09:51:45;;;;;;;;;20.50;16.75;;;;;3.38;84.99;95985.47;4964452;28;102162;-73
2023/01/17 09:54:37;;;;;;;;;26.25;18.50;;;;;3.44;84.86;95983.78;4970846;28;102016;-73
2023/01/17 09:57:27;;;;;;;;;19.25;15.75;;;;;3.47;84.93;95992.16;4939390;28;102209;-73
2023/01/17 10:00:23;;;;;;;;;19.50;15.25;;;;;3.57;84.90;95988.97;4957933;28;108601;-72
2023/01/17 10:03:30;;;;;;;;;23.75;18.50;;;;;3.56;84.55;95996.19;4950044;28;102158;-72
2023/01/17 10:06:10;;;;;;;;;18.00;15.00;;;;;3.61;84.18;96003.53;4962196;28;102355;-72
2023/01/17 10:08:52;;;;;;;;;19.75;18.50;;;;;3.65;83.73;95990.56;4944334;28;102600;-72
2023/01/17 10:11:29;;;;;;;;;18.50;16.00;;;;;3.74;83.68;95991.91;4936866;28;103381;-72
2023/01/17 10:14:14;;;;;;;;;23.50;20.25;;;;;3.75;82.58;95993.53;4961886;28;102298;-72
2023/01/17 10:16:47;;;;;;;;;26.25;18.50;;;;;3.82;83.69;95999.63;4961249;28;102294;-72
2023/01/17 10:19:51;;;;;;;;;20.00;15.50;;;;;3.93;83.69;95993.53;4968503;28;102172;-72
2023/01/17 10:22:53;;;;;;;;;19.50;17.50;;;;;3.97;83.25;95998.19;4967750;28;108684;-72
2023/01/17 10:25:45;;;;;;;;;25.50;21.00;;;;;4.05;83.36;95992.53;4961695;28;102382;-72
2023/01/17 10:28:20;;;;;;;;;27.00;25.25;;;;;4.15;82.90;96000.03;4962252;28;101961;-72
2023/01/17 10:30:56;;;;;;;;;31.75;27.75;;;;;4.15;82.50;95986.66;4965860;28;102065;-72
2023/01/17 10:33:28;;;;;;;;;22.50;19.25;;;;;4.19;82.64;95987.06;4952576;28;104312;-72
2023/01/17 10:36:02;;;;;;;;;33.00;24.50;;;;;4.32;82.96;95985.00;4957560;28;102217;-72
2023/01/17 10:38:33;;;;;;;;;27.50;22.25;;;;;4.47;81.95;95993.47;4958164;28;102150;-72
2023/01/17 10:41:09;;;;;;;;;26.50;24.50;;;;;4.34;79.67;95963.38;4950022;28;102345;-72
2023/01/17 10:43:49;;;;;;;;;30.00;25.25;;;;;4.42;79.30;95963.88;4943776;28;108894;-71
2023/01/17 10:46:23;;;;;;;;;35.75;29.75;;;;;4.69;78.34;95991.09;4960805;28;102376;-73
2023/01/17 10:48:51;;;;;;;;;25.50;23.50;;;;;4.71;77.66;95994.38;4957200;28;107881;-72
2023/01/17 10:51:42;;;;;;;;;22.75;18.00;;;;;4.85;75.80;95995.00;4940894;28;103341;-73
2023/01/17 10:54:34;;;;;;;;;19.50;15.00;;;;;4.94;74.33;95994.44;4963877;28;108519;-72
2023/01/17 10:57:01;;;;;;;;;13.00;12.25;;;;;5.08;73.46;95996.91;4960008;28;101952;-72
2023/01/17 10:59:32;;;;;;;;;18.25;15.00;;;;;5.13;74.06;95999.72;4969860;28;101880;-73
2023/01/17 11:02:05;;;;;;;;;12.75;11.75;;;;;5.19;73.32;96009.47;4960415;28;102081;-73
2023/01/17 11:04:36;;;;;;;;;8.75;6.50;;;;;5.25;72.37;96003.22;4960782;28;108444;-73
2023/01/17 11:07:15;;;;;;;;;15.00;12.50;;;;;5.24;72.25;96006.94;4961521;28;101884;-72
2023/01/17 11:09:44;;;;;;;;;13.75;10.50;;;;;5.22;73.44;96009.81;4963774;28;102185;-72
2023/01/17 11:12:44;;;;;;;;;16.75;14.25;;;;;5.33;72.33;96011.72;4975601;28;102109;-72
2023/01/17 11:15:21;;;;;;;;;19.25;15.00;;;;;5.45;73.18;96017.06;4962565;27;108637;-72
2023/01/17 11:18:01;;;;;;;;;13.50;11.50;;;;;5.57;72.29;96014.41;4969340;28;102333;-73
2023/01/17 11:20:35;;;;;;;;;15.75;12.75;;;;;5.60;69.27;96009.41;4976940;27;102099;-73
2023/01/17 11:23:14;;;;;;;;;13.00;12.50;;;;;5.52;70.04;96022.34;4973068;28;102005;-72
2023/01/17 11:25:57;;;;;;;;;17.00;12.75;;;;;5.59;69.16;96007.75;4963422;28;108472;-72
2023/01/17 11:28:29;;;;;;;;;6.00;4.00;;;;;5.58;68.83;96010.69;4965970;28;102010;-71
2023/01/17 11:30:57;;;;;;;;;12.50;11.50;;;;;5.68;69.75;96010.91;4957824;28;102046;-73
2023/01/17 11:33:54;;;;;;;;;14.00;12.00;;;;;5.82;68.72;95996.22;4957490;28;102126;-73
2023/01/17 11:36:29;;;;;;;;;17.50;15.00;;;;;5.78;67.20;96001.22;4961906;28;108202;-73
2023/01/17 11:39:26;;;;;;;;;13.75;11.00;;;;;5.83;67.67;96001.34;4966243;28;110064;-73
2023/01/17 11:41:53;;;;;;;;;16.25;14.00;;;;;5.64;67.71;95981.06;4972258;28;102383;-72
2023/01/17 11:44:29;;;;;;;;;12.50;11.25;;;;;5.87;65.98;95996.34;4972883;28;102219;-72
2023/01/17 11:47:11;;;;;;;;;13.00;11.75;;;;;5.75;66.32;96001.72;4957605;27;104264;-72
2023/01/17 11:49:43;;;;;;;;;9.75;8.00;;;;;5.77;66.63;96006.81;4974752;28;102440;-72
2023/01/17 11:52:37;;;;;;;;;13.50;11.75;;;;;5.85;66.70;96006.50;4957939;28;102269;-73
2023/01/17 11:55:05;;;;;;;;;12.50;9.25;;;;;5.90;67.03;95982.47;4964046;28;102166;-73
2023/01/17 11:57:34;;;;;;;;;8.00;8.00;;;;;5.95;66.13;95979.91;4972881;28;108663;-73
2023/01/17 12:00:18;;;;;;;;;10.75;9.00;;;;;6.07;68.28;95967.31;4973704;28;102456;-73
2023/01/17 12:02:47;;;;;;;;;7.75;7.00;;;;;6.16;67.46;95970.44;4975006;27;102383;-72
2023/01/17 12:05:30;;;;;;;;;7.75;6.50;;;;;6.19;64.08;95968.06;4971971;28;102196;-73
2023/01/17 12:08:04;;;;;;;;;8.25;7.50;;;;;6.24;65.24;95972.72;4961885;28;104004;-73
2023/01/17 12:10:41;;;;;;;;;10.25;8.00;;;;;6.13;64.04;95971.69;4965044;28;102937;-72
2023/01/17 12:16:29;;;;;;;;;7.00;5.00;;;;;6.22;64.53;95964.91;4956342;28;102815;-72
2023/01/17 12:19:21;;;;;;;;;8.00;7.25;;;;;6.36;63.40;95964.63;4955286;28;104235;-73
2023/01/17 12:22:04;;;;;;;;;9.00;7.75;;;;;6.14;63.06;95935.78;4970616;28;102333;-72
2023/01/17 12:24:44;;;;;;;;;7.50;6.50;;;;;6.43;65.13;95949.22;4972739;28;104646;-73
2023/01/17 12:27:40;;;;;;;;;11.50;11.00;;;;;6.49;59.91;95953.59;4969703;28;102405;-72
2023/01/17 12:30:29;;;;;;;;;7.25;7.00;;;;;6.50;59.55;95965.97;4925578;28;108573;-72
2023/01/17 12:33:40;;;;;;;;;8.50;8.00;;;;;6.45;60.15;95952.47;4963769;28;103030;-73
2023/01/17 12:36:18;;;;;;;;;6.25;6.00;;;;;6.45;59.48;95953.28;4938418;28;102221;-71
2023/01/17 12:38:47;;;;;;;;;6.50;6.00;;;;;6.46;59.29;95959.47;4967782;28;102136;-73
2023/01/17 12:41:25;;;;;;;;;6.25;6.25;;;;;6.49;60.66;95964.34;4982390;27;103992;-72
2023/01/17 12:43:59;;;;;;;;;6.25;4.00;;;;;6.57;60.99;95969.34;4966338;28;102034;-73
2023/01/17 12:46:39;;;;;;;;;4.00;4.00;;;;;6.55;60.23;95966.91;4957858;28;102474;-72
2023/01/17 12:49:19;;;;;;;;;7.00;6.00;;;;;6.55;59.27;95979.50;4962472;28;102061;-73
2023/01/17 12:51:51;;;;;;;;;8.25;7.50;;;;;6.56;59.54;95981.94;4984247;28;108432;-73
2023/01/17 12:54:40;;;;;;;;;10.25;7.00;;;;;6.63;58.10;95996.03;4959043;28;102242;-73
2023/01/17 12:57:17;;;;;;;;;4.75;4.25;;;;;6.64;58.23;96000.34;4943946;28;102230;-73
2023/01/17 12:59:57;;;;;;;;;9.50;6.00;;;;;6.61;57.42;95995.47;4967539;28;102066;-72
2023/01/17 13:02:36;;;;;;;;;6.00;3.75;;;;;6.74;58.33;95989.00;4949945;28;104298;-73
2023/01/17 13:05:06;;;;;;;;;7.00;4.00;;;;;6.82;56.96;95991.28;4954534;28;102038;-74
2023/01/17 13:07:45;;;;;;;;;3.00;3.00;;;;;6.89;57.82;96000.00;4961979;28;102139;-73
2023/01/17 13:10:21;;;;;;;;;3.00;3.00;;;;;6.66;57.32;95992.06;4969353;28;102329;-71